createdAt,value
2022-07-25T00:00:13.775Z,1.73
2022-07-25T00:05:16.551Z,1.67
2022-07-25T00:10:19.292Z,1.77
2022-07-25T00:15:23.403Z,2.20
2022-07-25T00:20:26.380Z,1.40
2022-07-25T00:25:29.108Z,2.03
2022-07-25T00:30:33.324Z,1.40
2022-07-25T00:35:36.074Z,2.83
2022-07-25T00:40:38.784Z,1.50
2022-07-25T00:45:42.847Z,1.55
2022-07-25T00:50:45.800Z,3.67
2022-07-25T00:55:48.809Z,2.10
2022-07-25T01:00:53.135Z,1.60
2022-07-25T01:05:56.062Z,1.50
2022-07-25T01:10:58.767Z,1.65
2022-07-25T01:16:02.940Z,4.47
2022-07-25T01:21:08.332Z,2.83
2022-07-25T01:26:11.253Z,1.50
2022-07-25T01:31:14.056Z,2.03
2022-07-25T01:36:18.385Z,2.10
2022-07-25T01:41:22.273Z,1.63
2022-07-25T01:46:25.733Z,3.05
2022-07-25T01:51:29.811Z,2.13
2022-07-25T01:56:32.623Z,2.85
2022-07-25T02:01:36.180Z,2.03
2022-07-25T02:06:41.465Z,5.00
2022-07-25T02:11:44.182Z,2.25
2022-07-25T02:16:46.955Z,1.98
2022-07-25T02:21:51.356Z,3.28
2022-07-25T02:26:54.179Z,2.35
2022-07-25T02:31:56.952Z,2.22
2022-07-25T02:37:01.079Z,2.17
2022-07-25T02:42:03.810Z,2.22
2022-07-25T02:47:06.819Z,3.80
2022-07-25T02:52:10.891Z,3.55
2022-07-25T02:57:13.858Z,3.47
2022-07-25T03:02:16.552Z,2.67
2022-07-25T03:07:20.690Z,2.65
2022-07-25T03:12:23.507Z,3.70
2022-07-25T03:17:26.296Z,3.17
2022-07-25T03:22:30.364Z,2.58
2022-07-25T03:27:33.187Z,2.55
2022-07-25T03:32:36.064Z,4.45
2022-07-25T03:37:40.106Z,3.75
2022-07-25T03:42:42.800Z,3.03
2022-07-25T03:47:45.658Z,2.65
2022-07-25T03:52:50.048Z,3.97
2022-07-25T03:57:52.724Z,3.28
2022-07-25T04:02:55.440Z,2.85
2022-07-25T04:07:59.500Z,4.13
2022-07-25T04:13:02.172Z,3.50
2022-07-25T04:18:05.321Z,3.30
2022-07-25T04:23:11.733Z,3.53
2022-07-25T04:28:14.418Z,4.90
2022-07-25T04:33:17.250Z,4.90
2022-07-25T04:38:21.238Z,3.50
2022-07-25T04:43:24.123Z,4.38
2022-07-25T04:48:27.130Z,7.95
2022-07-25T04:53:31.344Z,3.45
2022-07-25T04:58:34.308Z,3.95
2022-07-25T05:03:37.002Z,3.45
2022-07-25T05:08:41.012Z,3.63
2022-07-25T05:13:43.723Z,3.92
2022-07-25T05:18:46.665Z,6.10
2022-07-25T05:23:50.723Z,4.90
2022-07-25T05:28:53.602Z,4.13
2022-07-25T05:33:56.377Z,3.97
2022-07-25T05:39:00.497Z,4.55
2022-07-25T05:44:03.306Z,4.18
2022-07-25T05:49:09.278Z,4.65
2022-07-25T05:54:13.413Z,6.97
2022-07-25T05:59:16.140Z,4.18
2022-07-25T06:04:18.870Z,4.63
2022-07-25T06:09:23.327Z,4.15
2022-07-25T06:14:26.014Z,4.47
2022-07-25T06:19:32.877Z,4.93
2022-07-25T06:24:37.147Z,5.68
2022-07-25T06:29:40.001Z,9.10
2022-07-25T06:34:42.712Z,4.45
2022-07-25T06:39:46.938Z,4.30
2022-07-25T06:44:50.124Z,4.80
2022-07-25T06:49:53.141Z,4.47
2022-07-25T06:54:57.316Z,4.13
2022-07-25T07:00:00.286Z,4.88
2022-07-25T07:05:03.146Z,6.70
2022-07-25T07:10:08.274Z,4.88
2022-07-25T07:15:12.280Z,5.45
2022-07-25T07:20:15.040Z,5.78
2022-07-25T07:25:21.009Z,5.60
2022-07-25T07:30:29.848Z,5.45
2022-07-25T07:35:47.013Z,5.47
2022-07-25T07:40:51.076Z,4.82
2022-07-25T07:45:56.127Z,5.13
2022-07-25T07:51:03.404Z,4.18
2022-07-25T07:56:08.304Z,4.68
2022-07-25T08:01:11.066Z,5.50
2022-07-25T08:06:13.765Z,4.78
2022-07-25T08:11:18.066Z,6.43
2022-07-25T08:16:22.377Z,5.13
2022-07-25T08:21:25.071Z,4.13
2022-07-25T08:26:30.465Z,4.75
2022-07-25T08:31:33.404Z,4.05
2022-07-25T08:36:36.192Z,4.88
2022-07-25T08:41:42.033Z,4.82
2022-07-25T08:46:48.268Z,3.95
2022-07-25T08:51:51.660Z,5.10
2022-07-25T08:56:55.897Z,4.93
2022-07-25T09:02:02.187Z,5.55
2022-07-25T09:07:08.402Z,4.38
2022-07-25T09:12:12.643Z,4.80
2022-07-25T09:17:22.615Z,4.63
2022-07-25T09:22:26.797Z,6.85
2022-07-25T09:27:34.390Z,5.03
2022-07-25T09:32:37.113Z,5.03
2022-07-25T09:37:40.161Z,4.53
2022-07-25T09:42:46.228Z,5.38
2022-07-25T09:47:56.276Z,4.55
2022-07-25T09:53:00.721Z,4.75
2022-07-25T09:58:05.178Z,4.63
2022-07-25T10:03:27.553Z,4.35
2022-07-25T10:08:31.082Z,5.05
2022-07-25T10:13:38.222Z,4.93
2022-07-25T10:18:50.454Z,5.95
2022-07-25T10:24:05.016Z,4.68
2022-07-25T10:29:13.100Z,5.25
2022-07-25T10:34:15.906Z,4.20
2022-07-25T10:39:21.271Z,4.20
2022-07-25T10:44:30.443Z,5.20
2022-07-25T10:49:38.802Z,4.38
2022-07-25T10:54:43.426Z,4.28
2022-07-25T10:59:47.722Z,6.07
2022-07-25T11:04:59.746Z,3.70
2022-07-25T11:10:04.143Z,4.40
2022-07-25T11:15:12.302Z,4.07
2022-07-25T11:20:18.345Z,4.70
2022-07-25T11:25:22.479Z,3.83
2022-07-25T11:30:29.018Z,4.20
2022-07-25T11:35:33.596Z,3.65
2022-07-25T11:40:43.922Z,3.72
2022-07-25T11:45:57.510Z,4.07
2022-07-25T11:51:12.633Z,4.20
2022-07-25T12:01:45.262Z,3.78
2022-07-25T12:06:49.696Z,3.67
2022-07-25T12:12:03.175Z,4.85
2022-07-25T12:17:07.259Z,4.03
2022-07-25T12:22:10.265Z,3.55
2022-07-25T12:27:13.029Z,3.70
2022-07-25T12:32:17.199Z,4.05
2022-07-25T12:37:21.659Z,3.80
2022-07-25T12:42:24.471Z,3.53
2022-07-25T12:47:29.536Z,3.78
2022-07-25T12:52:32.575Z,3.70
2022-07-25T12:57:37.103Z,3.50
2022-07-25T13:02:41.683Z,5.30
2022-07-25T13:07:44.721Z,3.70
2022-07-25T13:12:47.659Z,3.60
2022-07-25T13:17:52.095Z,3.38
2022-07-25T13:22:54.938Z,4.68
2022-07-25T13:27:57.814Z,4.82
2022-07-25T13:33:01.950Z,3.50
2022-07-25T13:38:05.170Z,4.30
2022-07-25T13:43:08.160Z,6.30
2022-07-25T13:48:29.451Z,3.90
2022-07-25T13:53:33.013Z,3.60
2022-07-25T13:58:35.655Z,4.35
2022-07-25T14:03:40.569Z,5.07
2022-07-25T14:08:43.745Z,3.78
2022-07-25T14:13:47.765Z,3.58
2022-07-25T14:18:52.279Z,3.70
2022-07-25T14:23:55.186Z,4.55
2022-07-25T14:28:58.280Z,4.10
2022-07-25T14:34:02.333Z,4.38
2022-07-25T14:39:05.789Z,3.70
2022-07-25T14:44:09.457Z,3.95
2022-07-25T14:49:17.663Z,3.80
2022-07-25T14:54:20.560Z,5.38
2022-07-25T14:59:24.159Z,3.50
2022-07-25T15:04:28.587Z,3.13
2022-07-25T15:09:31.489Z,4.40
2022-07-25T15:14:34.593Z,3.80
2022-07-25T15:19:39.063Z,3.85
2022-07-25T15:25:13.973Z,3.92
2022-07-25T15:30:05.826Z,4.05
2022-07-25T15:35:10.426Z,4.15
2022-07-25T15:40:14.342Z,3.50
2022-07-25T15:45:32.545Z,4.18
2022-07-25T15:50:40.091Z,4.55
2022-07-25T15:55:43.377Z,7.55
2022-07-25T16:00:46.287Z,8.10
2022-07-25T16:05:50.438Z,3.92
2022-07-25T16:10:53.245Z,4.25
2022-07-25T16:15:56.234Z,4.50
2022-07-25T16:21:00.523Z,4.30
2022-07-25T16:26:03.320Z,4.38
2022-07-25T16:31:06.680Z,4.90
2022-07-25T16:36:11.713Z,4.80
2022-07-25T16:41:14.426Z,7.15
2022-07-25T16:46:17.516Z,17.20
2022-07-25T16:51:21.697Z,11.65
2022-07-25T16:56:24.537Z,10.93
2022-07-25T17:01:27.556Z,14.43
2022-07-25T17:06:32.080Z,9.75
2022-07-25T17:11:35.373Z,11.07
2022-07-25T17:16:38.210Z,7.95
2022-07-25T17:21:42.530Z,10.75
2022-07-25T17:26:45.346Z,9.60
2022-07-25T17:31:49.818Z,8.75
2022-07-25T17:36:57.216Z,12.15
2022-07-25T17:42:00.157Z,8.10
2022-07-25T17:47:04.195Z,9.00
2022-07-25T17:52:08.416Z,8.40
2022-07-25T17:57:11.442Z,10.02
2022-07-25T18:02:14.249Z,7.93
2022-07-25T18:07:18.401Z,6.55
2022-07-25T18:12:23.788Z,8.10
2022-07-25T18:17:29.121Z,7.63
2022-07-25T18:22:33.183Z,7.25
2022-07-25T18:27:36.324Z,7.00
2022-07-25T18:32:40.061Z,8.52
2022-07-25T18:37:44.625Z,8.90
2022-07-25T18:42:47.588Z,6.95
2022-07-25T18:47:55.604Z,9.00
2022-07-25T18:52:59.668Z,7.78
2022-07-25T18:58:02.434Z,7.55
2022-07-25T19:03:05.871Z,5.97
2022-07-25T19:08:10.181Z,8.00
2022-07-25T19:13:32.633Z,7.35
2022-07-25T19:18:36.204Z,9.00
2022-07-25T19:23:46.984Z,6.40
2022-07-25T19:28:53.078Z,8.30
2022-07-25T19:33:56.403Z,5.95
2022-07-25T19:39:01.223Z,6.95
2022-07-25T19:44:04.293Z,9.40
2022-07-25T19:49:07.951Z,7.07
2022-07-25T19:54:13.361Z,6.80
2022-07-25T19:59:16.287Z,6.95
2022-07-25T20:04:19.072Z,6.38
2022-07-25T20:09:23.438Z,7.50
2022-07-25T20:14:26.577Z,6.05
2022-07-25T20:19:29.583Z,8.48
2022-07-25T20:24:34.007Z,7.72
2022-07-25T20:29:36.911Z,8.30
2022-07-25T20:34:40.528Z,6.47
2022-07-25T20:39:44.777Z,6.80
2022-07-25T20:44:51.079Z,8.10
2022-07-25T20:49:53.885Z,7.63
2022-07-25T20:54:58.121Z,8.00
2022-07-25T21:00:00.824Z,8.85
2022-07-25T21:05:03.690Z,7.05
2022-07-25T21:10:09.597Z,8.65
2022-07-25T21:15:13.099Z,6.88
2022-07-25T21:20:16.534Z,6.53
2022-07-25T21:25:20.659Z,11.48
2022-07-25T21:30:23.442Z,8.20
2022-07-25T21:35:26.185Z,6.93
2022-07-25T21:40:30.329Z,7.50
2022-07-25T21:45:33.130Z,7.10
2022-07-25T21:50:43.570Z,6.47
2022-07-25T21:55:48.175Z,7.70
2022-07-25T22:00:51.570Z,6.03
2022-07-25T22:05:54.326Z,6.47
2022-07-25T22:10:58.568Z,7.38
2022-07-25T22:16:01.615Z,5.30
2022-07-25T22:21:04.707Z,6.38
2022-07-25T22:26:09.347Z,4.68
2022-07-25T22:31:13.646Z,5.20
2022-07-25T22:36:16.482Z,6.65
2022-07-25T22:41:20.663Z,5.13
2022-07-25T22:46:23.611Z,5.82
2022-07-25T22:51:27.078Z,3.88
2022-07-25T22:56:31.247Z,5.47
2022-07-25T23:01:34.286Z,7.85
2022-07-25T23:06:36.989Z,4.50
2022-07-25T23:11:41.567Z,5.18
2022-07-25T23:16:44.400Z,4.53
2022-07-25T23:21:47.217Z,5.70
2022-07-25T23:26:51.310Z,4.35
2022-07-25T23:31:54.116Z,4.63
2022-07-25T23:36:57.269Z,4.22
2022-07-25T23:42:01.608Z,5.75
2022-07-25T23:47:05.110Z,4.72
2022-07-25T23:52:13.111Z,4.30
2022-07-25T23:57:17.413Z,4.20
